createdAt,value
2023-05-23T00:02:18.476Z,19.68
2023-05-23T00:04:45.284Z,19.66
2023-05-23T00:07:12.063Z,19.66
2023-05-23T00:09:41.936Z,19.65
2023-05-23T00:12:09.011Z,19.57
2023-05-23T00:14:35.863Z,19.59
2023-05-23T00:17:02.667Z,19.54
2023-05-23T00:19:29.687Z,19.58
2023-05-23T00:21:59.458Z,19.56
2023-05-23T00:24:26.273Z,19.59
2023-05-23T00:26:53.200Z,19.56
2023-05-23T00:29:20.307Z,19.50
2023-05-23T00:31:47.625Z,19.45
2023-05-23T00:34:15.477Z,19.47
2023-05-23T00:36:43.887Z,19.47
2023-05-23T00:39:19.778Z,19.36
2023-05-23T00:41:51.404Z,19.40
2023-05-23T00:44:20.530Z,19.33
2023-05-23T00:46:51.293Z,19.28
2023-05-23T00:49:20.526Z,19.23
2023-05-23T00:51:47.526Z,19.19
2023-05-23T00:54:15.966Z,19.11
2023-05-23T00:56:44.183Z,19.03
2023-05-23T00:59:11.104Z,19.01
2023-05-23T01:01:37.903Z,19.00
2023-05-23T01:04:05.289Z,18.95
2023-05-23T01:06:33.882Z,18.94
2023-05-23T01:09:02.991Z,18.89
2023-05-23T01:11:42.316Z,18.88
2023-05-23T01:14:17.492Z,18.91
2023-05-23T01:16:49.366Z,18.87
2023-05-23T01:19:36.389Z,18.88
2023-05-23T01:22:09.573Z,18.83
2023-05-23T01:24:37.263Z,18.80
2023-05-23T01:27:36.365Z,18.85
2023-05-23T01:30:05.430Z,18.85
2023-05-23T01:32:32.573Z,18.85
2023-05-23T01:34:59.891Z,18.83
2023-05-23T01:37:26.911Z,18.82
2023-05-23T01:39:54.328Z,18.81
2023-05-23T01:42:21.652Z,18.84
2023-05-23T01:44:48.597Z,18.82
2023-05-23T01:47:15.675Z,18.81
2023-05-23T01:49:45.087Z,18.82
2023-05-23T01:52:13.545Z,18.78
2023-05-23T01:54:42.712Z,18.77
2023-05-23T01:57:11.376Z,18.74
2023-05-23T01:59:41.247Z,18.74
2023-05-23T02:02:08.297Z,18.72
2023-05-23T02:04:35.219Z,18.73
2023-05-23T02:07:02.147Z,18.54
2023-05-23T02:09:29.038Z,18.60
2023-05-23T02:11:56.058Z,18.66
2023-05-23T02:14:26.787Z,18.68
2023-05-23T02:16:54.168Z,18.65
2023-05-23T02:19:21.133Z,18.62
2023-05-23T02:21:48.077Z,18.67
2023-05-23T02:24:14.832Z,18.68
2023-05-23T02:26:42.024Z,18.62
2023-05-23T02:29:08.787Z,18.61
2023-05-23T02:31:36.659Z,18.64
2023-05-23T02:34:03.520Z,18.64
2023-05-23T02:36:30.391Z,18.66
2023-05-23T02:38:57.474Z,18.67
2023-05-23T02:41:24.348Z,18.65
2023-05-23T02:43:54.240Z,18.67
2023-05-23T02:46:21.049Z,18.69
2023-05-23T02:48:48.525Z,18.75
2023-05-23T02:51:15.588Z,18.68
2023-05-23T02:53:42.542Z,18.37
2023-05-23T02:56:09.996Z,18.51
2023-05-23T02:58:37.284Z,18.58
2023-05-23T03:01:07.028Z,18.60
2023-05-23T03:03:35.088Z,18.63
2023-05-23T03:06:06.600Z,18.63
2023-05-23T03:08:33.692Z,18.62
2023-05-23T03:11:00.559Z,18.66
2023-05-23T03:13:27.492Z,18.66
2023-05-23T03:15:54.392Z,18.67
2023-05-23T03:18:21.400Z,18.62
2023-05-23T03:20:48.594Z,18.55
2023-05-23T03:23:15.843Z,18.58
2023-05-23T03:25:43.777Z,18.57
2023-05-23T03:28:12.664Z,18.44
2023-05-23T03:30:39.639Z,18.34
2023-05-23T03:33:07.386Z,18.37
2023-05-23T03:35:34.716Z,18.42
2023-05-23T03:38:01.878Z,18.40
2023-05-23T03:40:29.107Z,18.40
2023-05-23T03:43:04.975Z,18.39
2023-05-23T03:45:33.469Z,18.39
2023-05-23T03:48:02.749Z,18.37
2023-05-23T03:50:30.345Z,18.40
2023-05-23T03:52:57.308Z,18.37
2023-05-23T03:55:25.723Z,18.38
2023-05-23T03:57:52.732Z,18.37
2023-05-23T04:00:20.420Z,18.34
2023-05-23T04:02:52.191Z,18.41
2023-05-23T04:05:22.214Z,18.45
2023-05-23T04:07:50.247Z,18.41
2023-05-23T04:10:17.331Z,18.36
2023-05-23T04:12:45.049Z,18.34
2023-05-23T04:15:16.224Z,18.38
2023-05-23T04:17:55.077Z,18.40
2023-05-23T04:20:22.385Z,18.39
2023-05-23T04:22:52.575Z,18.39
2023-05-23T04:25:20.566Z,18.40
2023-05-23T04:28:12.117Z,18.39
2023-05-23T04:30:39.252Z,18.37
2023-05-23T04:33:06.749Z,18.41
2023-05-23T04:35:34.555Z,18.41
2023-05-23T04:38:02.144Z,18.43
2023-05-23T04:40:30.555Z,18.41
2023-05-23T04:43:17.433Z,18.39
2023-05-23T04:45:54.709Z,18.32
2023-05-23T04:48:50.961Z,18.37
2023-05-23T04:51:17.888Z,18.41
2023-05-23T04:53:52.833Z,18.43
2023-05-23T04:56:22.028Z,18.46
2023-05-23T04:58:49.551Z,18.43
2023-05-23T05:01:17.165Z,18.50
2023-05-23T05:03:44.246Z,18.53
2023-05-23T05:06:11.259Z,18.47
2023-05-23T05:08:38.170Z,18.53
2023-05-23T05:11:05.349Z,18.54
2023-05-23T05:13:32.813Z,18.51
2023-05-23T05:15:59.747Z,18.53
2023-05-23T05:18:27.551Z,18.56
2023-05-23T05:20:57.301Z,18.55
2023-05-23T05:23:26.224Z,18.55
2023-05-23T05:25:53.111Z,18.59
2023-05-23T05:28:22.073Z,18.56
2023-05-23T05:30:54.565Z,18.57
2023-05-23T05:33:26.199Z,18.49
2023-05-23T05:36:04.156Z,18.52
2023-05-23T05:38:31.192Z,18.53
2023-05-23T05:40:58.084Z,18.51
2023-05-23T05:43:27.405Z,18.28
2023-05-23T05:45:54.353Z,18.39
2023-05-23T05:48:21.421Z,18.49
2023-05-23T05:50:48.373Z,18.50
2023-05-23T05:53:15.293Z,18.52
2023-05-23T05:55:42.305Z,18.53
2023-05-23T05:58:09.086Z,18.52
2023-05-23T06:00:50.284Z,18.57
2023-05-23T06:03:17.258Z,18.58
2023-05-23T06:05:55.460Z,18.62
2023-05-23T06:08:22.693Z,18.62
2023-05-23T06:10:49.617Z,18.63
2023-05-23T06:13:17.253Z,18.57
2023-05-23T06:15:47.883Z,18.67
2023-05-23T06:18:15.130Z,18.74
2023-05-23T06:20:42.128Z,18.73
2023-05-23T06:23:14.350Z,18.73
2023-05-23T06:25:41.437Z,18.77
2023-05-23T06:28:08.695Z,18.91
2023-05-23T06:30:37.668Z,18.81
2023-05-23T06:33:05.140Z,18.93
2023-05-23T06:35:31.999Z,18.98
2023-05-23T06:38:01.598Z,18.94
2023-05-23T06:40:28.386Z,19.02
2023-05-23T06:42:56.016Z,19.02
2023-05-23T06:45:36.126Z,18.96
2023-05-23T06:48:02.982Z,19.13
2023-05-23T06:50:31.563Z,19.09
2023-05-23T06:52:58.452Z,19.13
2023-05-23T06:55:25.395Z,19.14
2023-05-23T06:57:52.414Z,18.98
2023-05-23T07:00:21.207Z,19.05
2023-05-23T07:03:03.974Z,19.21
2023-05-23T07:05:33.477Z,19.26
2023-05-23T07:08:00.456Z,19.34
2023-05-23T07:10:27.518Z,19.25
2023-05-23T07:13:00.509Z,19.30
2023-05-23T07:15:28.299Z,19.35
2023-05-23T07:18:06.393Z,19.49
2023-05-23T07:20:34.325Z,19.51
2023-05-23T07:23:10.284Z,19.69
2023-05-23T07:25:40.361Z,19.74
2023-05-23T07:28:15.225Z,19.79
2023-05-23T07:30:42.788Z,19.71
2023-05-23T07:33:10.066Z,19.78
2023-05-23T07:35:37.647Z,19.77
2023-05-23T07:38:08.429Z,19.74
2023-05-23T07:40:35.350Z,19.95
2023-05-23T07:43:02.410Z,20.03
2023-05-23T07:45:29.373Z,19.94
2023-05-23T07:47:56.671Z,19.70
2023-05-23T07:50:23.689Z,19.97
2023-05-23T07:52:52.244Z,19.97
2023-05-23T07:55:24.874Z,20.07
2023-05-23T07:57:55.271Z,20.14
2023-05-23T08:00:22.693Z,20.38
2023-05-23T08:02:55.627Z,20.38
2023-05-23T08:05:28.486Z,20.69
2023-05-23T08:08:00.200Z,20.79
2023-05-23T08:10:29.827Z,20.89
2023-05-23T08:13:07.008Z,21.24
2023-05-23T08:15:40.014Z,21.33
2023-05-23T08:18:14.563Z,21.42
2023-05-23T08:20:42.748Z,21.63
2023-05-23T08:23:09.971Z,21.74
2023-05-23T08:25:36.888Z,21.89
2023-05-23T08:28:03.722Z,22.00
2023-05-23T08:30:54.315Z,22.09
2023-05-23T08:33:21.297Z,22.17
2023-05-23T08:35:49.812Z,21.74
2023-05-23T08:38:22.373Z,21.92
2023-05-23T08:41:05.930Z,21.95
2023-05-23T08:43:32.896Z,21.98
2023-05-23T08:45:59.941Z,22.01
2023-05-23T08:48:29.995Z,22.12
2023-05-23T08:50:58.272Z,22.15
2023-05-23T08:53:27.542Z,22.12
2023-05-23T08:56:03.042Z,22.09
2023-05-23T08:58:42.116Z,22.42
2023-05-23T09:01:11.068Z,22.49
2023-05-23T09:03:39.265Z,22.67
2023-05-23T09:06:21.714Z,22.73
2023-05-23T09:08:48.861Z,22.75
2023-05-23T09:11:17.772Z,22.73
2023-05-23T09:13:46.149Z,22.71
2023-05-23T09:16:18.077Z,22.42
2023-05-23T09:18:55.043Z,22.53
2023-05-23T09:21:24.898Z,22.46
2023-05-23T09:24:02.320Z,22.36
2023-05-23T09:26:30.269Z,22.41
2023-05-23T09:29:00.651Z,22.42
2023-05-23T09:31:29.358Z,22.09
2023-05-23T09:33:58.504Z,22.10
2023-05-23T09:36:33.861Z,21.94
2023-05-23T09:39:05.828Z,21.95
2023-05-23T09:41:36.094Z,21.90
2023-05-23T09:44:08.807Z,21.97
2023-05-23T09:46:36.785Z,21.83
2023-05-23T09:49:11.485Z,21.73
2023-05-23T09:51:38.578Z,21.86
2023-05-23T09:54:05.355Z,21.94
2023-05-23T09:56:32.624Z,21.91
2023-05-23T09:58:59.805Z,22.02
2023-05-23T10:01:27.654Z,22.11
2023-05-23T10:04:00.250Z,21.94
2023-05-23T10:06:32.789Z,21.62
2023-05-23T10:09:06.432Z,21.73
2023-05-23T10:12:11.309Z,21.56
2023-05-23T10:14:41.356Z,21.44
2023-05-23T10:17:13.808Z,21.31
2023-05-23T10:19:47.489Z,21.26
2023-05-23T10:22:16.064Z,21.22
2023-05-23T10:24:45.243Z,21.23
2023-05-23T10:27:12.484Z,21.15
2023-05-23T10:29:39.373Z,21.00
2023-05-23T10:32:07.052Z,20.79
2023-05-23T10:34:45.002Z,20.71
2023-05-23T10:37:18.947Z,20.53
2023-05-23T10:40:01.671Z,20.54
2023-05-23T10:42:34.380Z,20.57
2023-05-23T10:45:21.208Z,20.57
2023-05-23T10:47:49.694Z,20.35
2023-05-23T10:50:31.651Z,20.30
2023-05-23T10:53:00.466Z,20.32
2023-05-23T10:55:32.347Z,19.98
2023-05-23T10:58:23.715Z,19.90
2023-05-23T11:00:57.097Z,20.02
2023-05-23T11:03:49.943Z,20.09
2023-05-23T11:06:30.226Z,20.23
2023-05-23T11:09:10.372Z,20.15
2023-05-23T11:11:49.464Z,20.28
2023-05-23T11:14:16.536Z,20.24
2023-05-23T11:16:45.741Z,20.22
2023-05-23T11:19:18.803Z,20.12
2023-05-23T11:22:06.288Z,20.21
2023-05-23T11:24:50.785Z,20.19
2023-05-23T11:27:20.440Z,20.07
2023-05-23T11:29:58.548Z,20.01
2023-05-23T11:32:28.344Z,20.16
2023-05-23T11:34:55.310Z,20.24
2023-05-23T11:37:25.924Z,20.36
2023-05-23T11:39:54.157Z,20.38
2023-05-23T11:42:21.075Z,20.33
2023-05-23T11:44:51.600Z,20.41
2023-05-23T11:47:18.895Z,20.36
2023-05-23T11:49:47.295Z,20.41
2023-05-23T11:52:14.695Z,20.42
2023-05-23T11:54:45.064Z,20.55
2023-05-23T11:57:14.416Z,20.40
2023-05-23T11:59:41.452Z,20.32
2023-05-23T12:02:08.633Z,20.35
2023-05-23T12:04:37.331Z,20.31
2023-05-23T12:07:07.996Z,20.32
2023-05-23T12:09:44.891Z,20.46
2023-05-23T12:12:12.857Z,20.52
2023-05-23T12:14:44.928Z,20.44
2023-05-23T12:17:13.147Z,20.49
2023-05-23T12:19:40.716Z,20.38
2023-05-23T12:22:08.556Z,20.17
2023-05-23T12:24:35.351Z,20.23
2023-05-23T12:27:02.932Z,20.25
2023-05-23T12:29:32.926Z,20.32
2023-05-23T12:32:03.293Z,20.31
2023-05-23T12:34:30.267Z,20.22
2023-05-23T12:37:18.107Z,20.32
2023-05-23T12:39:46.867Z,20.28
2023-05-23T12:42:13.865Z,20.40
2023-05-23T12:44:42.265Z,20.44
2023-05-23T12:47:09.418Z,20.46
2023-05-23T12:49:36.417Z,20.50
2023-05-23T12:52:03.226Z,20.53
2023-05-23T12:54:30.199Z,20.23
2023-05-23T12:56:57.203Z,20.42
2023-05-23T12:59:24.151Z,20.47
2023-05-23T13:01:50.934Z,20.46
2023-05-23T13:04:18.015Z,20.30
2023-05-23T13:06:44.865Z,20.35
2023-05-23T13:09:11.773Z,20.41
2023-05-23T13:11:41.739Z,20.39
2023-05-23T13:14:08.641Z,20.42
2023-05-23T13:16:36.661Z,20.18
2023-05-23T13:19:03.705Z,20.28
2023-05-23T13:21:31.869Z,20.38
2023-05-23T13:23:58.792Z,20.33
2023-05-23T13:26:26.947Z,20.25
2023-05-23T13:28:53.805Z,20.26
2023-05-23T13:31:20.626Z,20.32
2023-05-23T13:33:47.526Z,20.11
2023-05-23T13:36:14.502Z,20.14
2023-05-23T13:38:41.391Z,19.93
2023-05-23T13:41:08.474Z,19.83
2023-05-23T13:43:35.483Z,19.81
2023-05-23T13:46:03.308Z,19.83
2023-05-23T13:48:30.576Z,19.93
2023-05-23T13:50:57.650Z,19.86
2023-05-23T13:53:24.751Z,19.96
2023-05-23T13:55:51.595Z,19.83
2023-05-23T13:58:18.399Z,19.77
2023-05-23T14:00:45.462Z,19.69
2023-05-23T14:03:12.556Z,19.92
2023-05-23T14:05:39.548Z,19.79
2023-05-23T14:08:06.724Z,19.67
2023-05-23T14:10:33.695Z,19.40
2023-05-23T14:13:00.529Z,19.52
2023-05-23T14:15:28.061Z,19.58
2023-05-23T14:17:56.197Z,19.45
2023-05-23T14:20:23.841Z,19.37
2023-05-23T14:22:51.676Z,19.37
2023-05-23T14:25:19.070Z,19.34
2023-05-23T14:27:48.979Z,19.17
2023-05-23T14:30:16.453Z,19.17
2023-05-23T14:32:43.386Z,19.14
2023-05-23T14:35:11.525Z,19.21
2023-05-23T14:37:38.422Z,19.01
2023-05-23T14:40:07.090Z,19.11
2023-05-23T14:42:33.932Z,19.12
2023-05-23T14:45:00.881Z,18.90
2023-05-23T14:47:27.796Z,18.99
2023-05-23T14:49:54.718Z,18.97
2023-05-23T14:52:21.525Z,19.06
2023-05-23T14:54:48.742Z,18.84
2023-05-23T14:57:15.728Z,18.74
2023-05-23T14:59:42.584Z,18.56
2023-05-23T15:02:09.519Z,18.45
2023-05-23T15:04:36.732Z,18.52
2023-05-23T15:07:04.031Z,18.30
2023-05-23T15:09:31.113Z,18.12
2023-05-23T15:11:58.616Z,17.96
2023-05-23T15:14:29.767Z,17.91
2023-05-23T15:16:56.938Z,17.85
2023-05-23T15:19:23.806Z,17.82
2023-05-23T15:21:52.060Z,17.82
2023-05-23T15:24:19.307Z,17.62
2023-05-23T15:26:46.185Z,17.36
2023-05-23T15:29:14.688Z,17.21
2023-05-23T15:31:41.637Z,17.30
2023-05-23T15:34:08.735Z,17.21
2023-05-23T15:36:36.877Z,17.15
2023-05-23T15:39:05.101Z,17.14
2023-05-23T15:41:32.478Z,16.94
2023-05-23T15:43:59.364Z,16.91
2023-05-23T15:46:26.353Z,16.98
2023-05-23T15:48:53.325Z,17.13
2023-05-23T15:51:20.201Z,17.04
2023-05-23T15:54:00.464Z,16.60
2023-05-23T15:56:27.991Z,16.54
2023-05-23T15:58:55.205Z,16.60
2023-05-23T16:01:22.292Z,16.75
2023-05-23T16:03:49.609Z,16.66
2023-05-23T16:06:16.768Z,16.67
2023-05-23T16:08:43.542Z,16.61
2023-05-23T16:11:10.320Z,16.50
2023-05-23T16:13:37.143Z,16.65
2023-05-23T16:16:04.775Z,16.37
2023-05-23T16:18:31.977Z,16.41
2023-05-23T16:20:58.853Z,16.44
2023-05-23T16:23:26.120Z,16.49
2023-05-23T16:25:53.523Z,16.57
2023-05-23T16:28:21.630Z,16.48
2023-05-23T16:30:48.639Z,16.52
2023-05-23T16:33:15.801Z,16.56
2023-05-23T16:35:43.066Z,16.51
2023-05-23T16:38:10.706Z,16.53
2023-05-23T16:40:37.549Z,16.32
2023-05-23T16:43:05.011Z,16.32
2023-05-23T16:45:31.914Z,16.37
2023-05-23T16:47:59.719Z,16.23
2023-05-23T16:50:26.579Z,16.32
2023-05-23T16:52:53.476Z,16.39
2023-05-23T16:55:20.318Z,16.24
2023-05-23T16:57:47.162Z,16.22
2023-05-23T17:00:14.383Z,16.11
2023-05-23T17:02:41.805Z,15.97
2023-05-23T17:05:09.120Z,15.89
2023-05-23T17:07:35.967Z,15.71
2023-05-23T17:10:03.047Z,15.71
2023-05-23T17:12:29.959Z,15.73
2023-05-23T17:14:56.895Z,15.79
2023-05-23T17:17:23.724Z,15.76
2023-05-23T17:19:50.748Z,15.69
2023-05-23T17:22:17.626Z,15.65
2023-05-23T17:24:44.502Z,15.60
2023-05-23T17:27:11.339Z,15.57
2023-05-23T17:29:38.128Z,15.77
2023-05-23T17:32:05.664Z,15.80
2023-05-23T17:34:32.577Z,15.75
2023-05-23T17:36:59.356Z,15.67
2023-05-23T17:39:26.597Z,15.78
2023-05-23T17:41:53.508Z,15.85
2023-05-23T17:44:20.691Z,15.82
2023-05-23T17:46:47.772Z,15.73
2023-05-23T17:49:14.750Z,15.82
2023-05-23T17:51:41.653Z,15.81
2023-05-23T17:54:08.630Z,15.79
2023-05-23T17:56:35.584Z,15.71
2023-05-23T17:59:04.702Z,15.76
2023-05-23T18:01:31.876Z,15.87
2023-05-23T18:03:58.910Z,15.84
2023-05-23T18:06:27.450Z,15.89
2023-05-23T18:08:55.468Z,15.83
2023-05-23T18:11:23.070Z,15.81
2023-05-23T18:13:50.156Z,15.71
2023-05-23T18:16:17.269Z,15.68
2023-05-23T18:18:45.172Z,15.69
2023-05-23T18:21:12.056Z,15.79
2023-05-23T18:23:39.122Z,15.75
2023-05-23T18:26:05.960Z,15.66
2023-05-23T18:28:32.774Z,15.61
2023-05-23T18:31:01.513Z,15.66
2023-05-23T18:33:28.434Z,15.71
2023-05-23T18:35:55.343Z,15.68
2023-05-23T18:38:22.140Z,15.66
2023-05-23T18:40:48.970Z,15.74
2023-05-23T18:43:17.701Z,15.82
2023-05-23T18:45:44.779Z,15.86
2023-05-23T18:48:11.658Z,15.73
2023-05-23T18:50:38.958Z,15.71
2023-05-23T18:53:05.898Z,15.56
2023-05-23T18:55:32.848Z,15.49
2023-05-23T18:57:59.638Z,15.56
2023-05-23T19:00:26.504Z,15.63
2023-05-23T19:02:53.410Z,15.62
2023-05-23T19:05:21.068Z,15.64
2023-05-23T19:07:47.855Z,15.60
2023-05-23T19:10:14.862Z,15.53
2023-05-23T19:12:41.654Z,15.57
2023-05-23T19:15:10.856Z,15.58
2023-05-23T19:17:38.317Z,15.47
2023-05-23T19:20:05.545Z,15.52
2023-05-23T19:22:46.972Z,15.55
2023-05-23T19:25:17.807Z,15.45
2023-05-23T19:27:44.675Z,15.39
2023-05-23T19:30:12.448Z,15.45
2023-05-23T19:32:39.757Z,15.35
2023-05-23T19:35:07.336Z,15.38
2023-05-23T19:37:34.519Z,15.42
2023-05-23T19:40:02.098Z,15.45
2023-05-23T19:42:32.332Z,15.34
2023-05-23T19:44:59.320Z,15.06
2023-05-23T19:47:27.952Z,15.01
2023-05-23T19:49:55.875Z,14.96
2023-05-23T19:52:22.738Z,14.86
2023-05-23T19:54:49.513Z,14.86
2023-05-23T19:57:16.431Z,14.66
2023-05-23T19:59:43.282Z,14.66
2023-05-23T20:02:10.310Z,14.63
2023-05-23T20:04:37.212Z,14.77
2023-05-23T20:07:04.113Z,14.81
2023-05-23T20:09:31.045Z,14.55
2023-05-23T20:11:58.244Z,14.47
2023-05-23T20:14:25.120Z,14.64
2023-05-23T20:16:54.047Z,14.71
2023-05-23T20:19:21.070Z,14.71
2023-05-23T20:21:48.188Z,14.70
2023-05-23T20:24:15.246Z,14.56
2023-05-23T20:26:42.678Z,14.51
2023-05-23T20:29:09.495Z,14.30
2023-05-23T20:31:36.481Z,14.45
2023-05-23T20:34:03.672Z,14.31
2023-05-23T20:36:30.801Z,14.44
2023-05-23T20:38:58.419Z,14.13
2023-05-23T20:41:25.648Z,14.02
2023-05-23T20:43:52.520Z,14.21
2023-05-23T20:46:19.449Z,14.27
2023-05-23T20:48:46.653Z,14.06
2023-05-23T20:51:13.753Z,14.24
2023-05-23T20:53:40.788Z,14.23
2023-05-23T20:56:10.562Z,14.36
2023-05-23T20:58:38.295Z,14.29
2023-05-23T21:01:05.281Z,14.27
2023-05-23T21:03:32.368Z,14.26
2023-05-23T21:05:59.230Z,14.27
2023-05-23T21:08:26.390Z,14.28
2023-05-23T21:10:54.672Z,14.20
